sensor_id;sensor_type;location;lat;lon;timestamp;pressure;altitude;pressure_sealevel;temperature;humidity
40592;BME280;26301;42.832;23.918;2023-03-20T00:02:06;93438.28;;;1.34;100.00
40592;BME280;26301;42.832;23.918;2023-03-20T00:04:32;93413.31;;;1.15;100.00
40592;BME280;26301;42.832;23.918;2023-03-20T00:06:57;93434.16;;;1.33;100.00
40592;BME280;26301;42.832;23.918;2023-03-20T00:09:23;93446.72;;;1.35;99.86
40592;BME280;26301;42.832;23.918;2023-03-20T00:11:52;93436.09;;;1.31;99.29
40592;BME280;26301;42.832;23.918;2023-03-20T00:14:19;93446.38;;;1.38;98.97
40592;BME280;26301;42.832;23.918;2023-03-20T00:16:47;93443.38;;;1.34;98.62
40592;BME280;26301;42.832;23.918;2023-03-20T00:19:19;93424.81;;;1.26;100.00
40592;BME280;26301;42.832;23.918;2023-03-20T00:21:45;93411.72;;;1.14;100.00
40592;BME280;26301;42.832;23.918;2023-03-20T00:24:12;93428.44;;;1.31;100.00
40592;BME280;26301;42.832;23.918;2023-03-20T00:26:38;93425.56;;;1.34;100.00
40592;BME280;26301;42.832;23.918;2023-03-20T00:29:05;93406.84;;;1.27;100.00
40592;BME280;26301;42.832;23.918;2023-03-20T00:31:36;93418.19;;;1.40;99.69
40592;BME280;26301;42.832;23.918;2023-03-20T00:34:05;93418.09;;;1.33;99.28
40592;BME280;26301;42.832;23.918;2023-03-20T00:36:31;93420.66;;;1.33;99.35
40592;BME280;26301;42.832;23.918;2023-03-20T00:38:57;93413.53;;;1.28;98.77
40592;BME280;26301;42.832;23.918;2023-03-20T00:41:28;93408.00;;;1.25;100.00
40592;BME280;26301;42.832;23.918;2023-03-20T00:43:59;93416.50;;;1.32;100.00
40592;BME280;26301;42.832;23.918;2023-03-20T00:46:26;93384.53;;;1.14;100.00
40592;BME280;26301;42.832;23.918;2023-03-20T00:48:52;93383.28;;;1.10;100.00
40592;BME280;26301;42.832;23.918;2023-03-20T00:51:19;93383.91;;;1.12;100.00
40592;BME280;26301;42.832;23.918;2023-03-20T00:53:45;93376.78;;;1.08;100.00
40592;BME280;26301;42.832;23.918;2023-03-20T00:56:40;93404.13;;;1.29;100.00
40592;BME280;26301;42.832;23.918;2023-03-20T00:59:13;93390.19;;;1.25;99.82
40592;BME280;26301;42.832;23.918;2023-03-20T01:01:41;93394.47;;;1.24;100.00
40592;BME280;26301;42.832;23.918;2023-03-20T01:04:15;93370.56;;;1.10;100.00
40592;BME280;26301;42.832;23.918;2023-03-20T01:06:41;93397.81;;;1.25;99.59
40592;BME280;26301;42.832;23.918;2023-03-20T01:09:07;93371.59;;;1.01;99.43
40592;BME280;26301;42.832;23.918;2023-03-20T01:11:33;93364.19;;;0.91;100.00
40592;BME280;26301;42.832;23.918;2023-03-20T01:14:00;93378.25;;;1.02;100.00
40592;BME280;26301;42.832;23.918;2023-03-20T01:16:26;93387.31;;;1.05;100.00
40592;BME280;26301;42.832;23.918;2023-03-20T01:18:53;93362.97;;;0.87;100.00
40592;BME280;26301;42.832;23.918;2023-03-20T01:21:19;93376.38;;;0.96;100.00
40592;BME280;26301;42.832;23.918;2023-03-20T01:23:45;93370.72;;;0.94;100.00
40592;BME280;26301;42.832;23.918;2023-03-20T01:26:20;93380.94;;;1.09;100.00
40592;BME280;26301;42.832;23.918;2023-03-20T01:28:48;93377.59;;;1.08;100.00
40592;BME280;26301;42.832;23.918;2023-03-20T01:31:16;93353.75;;;0.86;100.00
40592;BME280;26301;42.832;23.918;2023-03-20T01:33:42;93378.16;;;0.96;100.00
40592;BME280;26301;42.832;23.918;2023-03-20T01:36:13;93380.97;;;1.01;100.00
40592;BME280;26301;42.832;23.918;2023-03-20T01:38:40;93364.84;;;0.94;100.00
40592;BME280;26301;42.832;23.918;2023-03-20T01:41:16;93339.00;;;0.82;100.00
40592;BME280;26301;42.832;23.918;2023-03-20T01:43:44;93376.88;;;1.00;100.00
40592;BME280;26301;42.832;23.918;2023-03-20T01:51:19;93353.16;;;0.99;100.00
40592;BME280;26301;42.832;23.918;2023-03-20T01:53:53;93368.47;;;1.14;100.00
40592;BME280;26301;42.832;23.918;2023-03-20T01:56:20;93374.72;;;1.11;100.00
40592;BME280;26301;42.832;23.918;2023-03-20T01:58:50;93367.75;;;1.05;100.00
40592;BME280;26301;42.832;23.918;2023-03-20T02:01:17;93361.06;;;1.04;100.00
40592;BME280;26301;42.832;23.918;2023-03-20T02:03:46;93344.59;;;1.00;100.00
40592;BME280;26301;42.832;23.918;2023-03-20T02:06:13;93369.09;;;1.16;100.00
40592;BME280;26301;42.832;23.918;2023-03-20T02:08:48;93341.25;;;1.00;99.60
40592;BME280;26301;42.832;23.918;2023-03-20T02:11:16;93356.28;;;1.09;98.92
40592;BME280;26301;42.832;23.918;2023-03-20T02:13:43;93333.34;;;0.95;99.06
40592;BME280;26301;42.832;23.918;2023-03-20T02:16:14;93341.25;;;1.00;98.92
40592;BME280;26301;42.832;23.918;2023-03-20T02:18:43;93344.13;;;0.97;99.80
40592;BME280;26301;42.832;23.918;2023-03-20T02:51:55;93325.53;;;0.96;100.00
40592;BME280;26301;42.832;23.918;2023-03-20T02:54:52;93354.09;;;1.21;100.00
40592;BME280;26301;42.832;23.918;2023-03-20T03:00:07;93334.16;;;1.10;100.00
40592;BME280;26301;42.832;23.918;2023-03-20T03:02:47;93347.69;;;1.25;100.00
40592;BME280;26301;42.832;23.918;2023-03-20T03:05:24;93337.38;;;1.27;100.00
40592;BME280;26301;42.832;23.918;2023-03-20T03:07:54;93342.88;;;1.30;100.00
40592;BME280;26301;42.832;23.918;2023-03-20T03:10:37;93342.53;;;1.33;100.00
40592;BME280;26301;42.832;23.918;2023-03-20T03:13:05;93317.34;;;1.24;100.00
40592;BME280;26301;42.832;23.918;2023-03-20T03:15:37;93324.09;;;1.31;99.82
40592;BME280;26301;42.832;23.918;2023-03-20T03:18:06;93348.59;;;1.47;99.35
40592;BME280;26301;42.832;23.918;2023-03-20T03:20:35;93340.59;;;1.50;98.55
40592;BME280;26301;42.832;23.918;2023-03-20T03:23:04;93331.94;;;1.45;97.94
40592;BME280;26301;42.832;23.918;2023-03-20T03:25:36;93324.75;;;1.48;97.60
40592;BME280;26301;42.832;23.918;2023-03-20T03:31:06;93331.84;;;1.53;96.73
40592;BME280;26301;42.832;23.918;2023-03-20T03:33:34;93351.44;;;1.67;96.77
40592;BME280;26301;42.832;23.918;2023-03-20T03:41:32;93352.66;;;1.71;96.17
40592;BME280;26301;42.832;23.918;2023-03-20T03:47:01;93346.16;;;1.69;96.00
40592;BME280;26301;42.832;23.918;2023-03-20T03:49:40;93321.22;;;1.49;96.41
40592;BME280;26301;42.832;23.918;2023-03-20T03:52:14;93342.22;;;1.66;96.63
40592;BME280;26301;42.832;23.918;2023-03-20T03:55:02;93340.38;;;1.75;95.60
40592;BME280;26301;42.832;23.918;2023-03-20T03:57:46;93343.28;;;1.72;95.55
40592;BME280;26301;42.832;23.918;2023-03-20T04:00:19;93329.41;;;1.59;95.62
40592;BME280;26301;42.832;23.918;2023-03-20T04:02:49;93329.28;;;1.53;95.63
40592;BME280;26301;42.832;23.918;2023-03-20T04:05:17;93338.97;;;1.57;95.78
40592;BME280;26301;42.832;23.918;2023-03-20T04:07:55;93337.63;;;1.62;95.33
40592;BME280;26301;42.832;23.918;2023-03-20T04:10:21;93323.84;;;1.56;95.06
40592;BME280;26301;42.832;23.918;2023-03-20T04:12:47;93342.13;;;1.59;94.86
40592;BME280;26301;42.832;23.918;2023-03-20T04:15:14;93327.63;;;1.45;95.39
40592;BME280;26301;42.832;23.918;2023-03-20T04:17:41;93332.72;;;1.45;95.26
40592;BME280;26301;42.832;23.918;2023-03-20T04:20:07;93342.22;;;1.51;96.14
40592;BME280;26301;42.832;23.918;2023-03-20T04:22:33;93338.41;;;1.47;96.26
40592;BME280;26301;42.832;23.918;2023-03-20T04:25:03;93346.16;;;1.54;95.87
40592;BME280;26301;42.832;23.918;2023-03-20T04:27:29;93338.25;;;1.49;95.58
40592;BME280;26301;42.832;23.918;2023-03-20T04:29:55;93316.31;;;1.33;95.93
40592;BME280;26301;42.832;23.918;2023-03-20T04:32:20;93321.63;;;1.23;96.27
40592;BME280;26301;42.832;23.918;2023-03-20T04:34:46;93351.06;;;1.41;96.16
40592;BME280;26301;42.832;23.918;2023-03-20T04:37:12;93338.75;;;1.29;96.36
40592;BME280;26301;42.832;23.918;2023-03-20T04:39:38;93339.81;;;1.35;96.22
40592;BME280;26301;42.832;23.918;2023-03-20T04:42:07;93322.25;;;1.25;96.53
40592;BME280;26301;42.832;23.918;2023-03-20T04:44:33;93337.72;;;1.39;96.74
40592;BME280;26301;42.832;23.918;2023-03-20T04:46:59;93323.25;;;1.39;95.80
40592;BME280;26301;42.832;23.918;2023-03-20T04:49:26;93344.56;;;1.53;95.93
40592;BME280;26301;42.832;23.918;2023-03-20T04:51:53;93328.59;;;1.44;95.76
40592;BME280;26301;42.832;23.918;2023-03-20T04:54:19;93338.25;;;1.49;96.14
40592;BME280;26301;42.832;23.918;2023-03-20T04:56:45;93355.38;;;1.70;96.60
40592;BME280;26301;42.832;23.918;2023-03-20T04:59:11;93338.06;;;1.65;96.19
40592;BME280;26301;42.832;23.918;2023-03-20T05:01:37;93336.78;;;1.69;95.93
40592;BME280;26301;42.832;23.918;2023-03-20T05:04:04;93352.13;;;1.91;95.70
40592;BME280;26301;42.832;23.918;2023-03-20T05:06:30;93333.31;;;1.92;95.94
40592;BME280;26301;42.832;23.918;2023-03-20T05:08:57;93353.88;;;2.20;97.56
40592;BME280;26301;42.832;23.918;2023-03-20T05:11:24;93347.50;;;2.31;96.68
40592;BME280;26301;42.832;23.918;2023-03-20T05:13:50;93347.34;;;2.32;95.96
40592;BME280;26301;42.832;23.918;2023-03-20T05:16:16;93333.16;;;2.44;95.40
40592;BME280;26301;42.832;23.918;2023-03-20T05:18:42;93348.53;;;2.72;95.49
40592;BME280;26301;42.832;23.918;2023-03-20T05:21:08;93336.56;;;2.73;95.29
40592;BME280;26301;42.832;23.918;2023-03-20T05:23:34;93360.00;;;3.05;95.50
40592;BME280;26301;42.832;23.918;2023-03-20T05:26:00;93349.06;;;3.11;95.35
40592;BME280;26301;42.832;23.918;2023-03-20T05:28:26;93360.38;;;3.30;94.66
40592;BME280;26301;42.832;23.918;2023-03-20T05:30:51;93363.22;;;3.41;94.21
40592;BME280;26301;42.832;23.918;2023-03-20T05:33:17;93343.25;;;3.52;93.91
40592;BME280;26301;42.832;23.918;2023-03-20T05:35:43;93339.56;;;3.61;93.08
40592;BME280;26301;42.832;23.918;2023-03-20T05:38:09;93357.63;;;3.87;92.75
40592;BME280;26301;42.832;23.918;2023-03-20T05:40:34;93360.06;;;4.02;92.04
40592;BME280;26301;42.832;23.918;2023-03-20T05:43:00;93349.69;;;4.10;90.66
40592;BME280;26301;42.832;23.918;2023-03-20T05:45:26;93355.06;;;4.35;90.82
40592;BME280;26301;42.832;23.918;2023-03-20T05:47:52;93355.53;;;4.46;88.76
40592;BME280;26301;42.832;23.918;2023-03-20T05:50:17;93362.47;;;4.72;87.26
40592;BME280;26301;42.832;23.918;2023-03-20T05:52:46;93363.69;;;4.96;87.01
40592;BME280;26301;42.832;23.918;2023-03-20T05:55:13;93363.31;;;5.12;86.13
40592;BME280;26301;42.832;23.918;2023-03-20T05:57:39;93365.69;;;5.34;84.74
40592;BME280;26301;42.832;23.918;2023-03-20T06:00:06;93353.66;;;5.41;85.74
40592;BME280;26301;42.832;23.918;2023-03-20T06:02:32;93364.28;;;5.71;83.10
40592;BME280;26301;42.832;23.918;2023-03-20T06:04:58;93360.31;;;5.95;82.72
40592;BME280;26301;42.832;23.918;2023-03-20T06:07:24;93362.47;;;6.11;82.30
40592;BME280;26301;42.832;23.918;2023-03-20T06:09:50;93345.88;;;6.21;81.96
40592;BME280;26301;42.832;23.918;2023-03-20T06:12:16;93335.91;;;6.37;80.53
40592;BME280;26301;42.832;23.918;2023-03-20T06:14:41;93347.25;;;6.61;80.09
40592;BME280;26301;42.832;23.918;2023-03-20T06:17:07;93357.44;;;6.81;81.43
40592;BME280;26301;42.832;23.918;2023-03-20T06:19:33;93360.44;;;7.03;81.82
40592;BME280;26301;42.832;23.918;2023-03-20T06:21:59;93375.09;;;7.28;82.74
40592;BME280;26301;42.832;23.918;2023-03-20T06:24:24;93347.94;;;7.39;80.49
40592;BME280;26301;42.832;23.918;2023-03-20T06:26:50;93353.66;;;7.66;80.31
40592;BME280;26301;42.832;23.918;2023-03-20T06:29:16;93370.34;;;8.00;79.53
40592;BME280;26301;42.832;23.918;2023-03-20T06:31:41;93366.09;;;8.31;78.52
40592;BME280;26301;42.832;23.918;2023-03-20T06:34:07;93354.09;;;8.43;nan
40592;BME280;26301;42.832;23.918;2023-03-20T06:36:32;93337.03;;;8.60;73.35
40592;BME280;26301;42.832;23.918;2023-03-20T06:38:58;93348.47;;;8.95;73.83
40592;BME280;26301;42.832;23.918;2023-03-20T06:41:24;93335.41;;;9.08;71.20
40592;BME280;26301;42.832;23.918;2023-03-20T06:43:49;93353.06;;;9.46;65.89
40592;BME280;26301;42.832;23.918;2023-03-20T06:46:15;93344.00;;;9.67;66.24
40592;BME280;26301;42.832;23.918;2023-03-20T06:48:40;93356.66;;;10.04;61.83
40592;BME280;26301;42.832;23.918;2023-03-20T06:51:06;93363.03;;;10.37;63.83
40592;BME280;26301;42.832;23.918;2023-03-20T06:53:32;93366.34;;;10.61;63.43
40592;BME280;26301;42.832;23.918;2023-03-20T06:55:58;93361.91;;;10.85;56.57
40592;BME280;26301;42.832;23.918;2023-03-20T06:58:24;93360.47;;;11.06;53.38
40592;BME280;26301;42.832;23.918;2023-03-20T07:00:50;93371.25;;;11.31;54.49
40592;BME280;26301;42.832;23.918;2023-03-20T07:03:16;93360.91;;;11.48;48.32
40592;BME280;26301;42.832;23.918;2023-03-20T07:05:42;93361.84;;;11.76;50.97
40592;BME280;26301;42.832;23.918;2023-03-20T07:08:09;93349.16;;;11.91;53.10
40592;BME280;26301;42.832;23.918;2023-03-20T07:10:35;93344.50;;;12.10;50.49
40592;BME280;26301;42.832;23.918;2023-03-20T07:13:01;93305.38;;;12.06;48.51
40592;BME280;26301;42.832;23.918;2023-03-20T07:15:27;93342.28;;;12.41;46.41
40592;BME280;26301;42.832;23.918;2023-03-20T07:17:54;93338.00;;;12.51;44.17
40592;BME280;26301;42.832;23.918;2023-03-20T07:20:21;93356.25;;;12.84;43.48
40592;BME280;26301;42.832;23.918;2023-03-20T07:22:47;93353.28;;;12.97;42.06
40592;BME280;26301;42.832;23.918;2023-03-20T07:25:13;93343.63;;;12.92;41.54
40592;BME280;26301;42.832;23.918;2023-03-20T07:27:40;93351.34;;;13.09;43.34
40592;BME280;26301;42.832;23.918;2023-03-20T07:30:06;93347.78;;;13.20;41.60
40592;BME280;26301;42.832;23.918;2023-03-20T07:32:33;93346.88;;;13.32;42.84
40592;BME280;26301;42.832;23.918;2023-03-20T07:34:59;93351.47;;;13.52;42.45
40592;BME280;26301;42.832;23.918;2023-03-20T07:37:25;93330.22;;;13.60;40.37
40592;BME280;26301;42.832;23.918;2023-03-20T07:39:51;93356.13;;;13.82;40.25
40592;BME280;26301;42.832;23.918;2023-03-20T07:42:17;93356.50;;;14.01;39.57
40592;BME280;26301;42.832;23.918;2023-03-20T07:44:43;93353.69;;;14.12;36.95
40592;BME280;26301;42.832;23.918;2023-03-20T07:47:09;93332.94;;;14.12;35.79
40592;BME280;26301;42.832;23.918;2023-03-20T07:49:34;93348.09;;;14.31;36.01
40592;BME280;26301;42.832;23.918;2023-03-20T07:52:00;93356.72;;;14.47;33.37
40592;BME280;26301;42.832;23.918;2023-03-20T07:54:26;93352.38;;;14.52;34.92
40592;BME280;26301;42.832;23.918;2023-03-20T07:56:52;93351.06;;;14.55;33.67
40592;BME280;26301;42.832;23.918;2023-03-20T07:59:18;93338.59;;;14.52;34.22
40592;BME280;26301;42.832;23.918;2023-03-20T08:01:44;93365.22;;;14.74;34.82
40592;BME280;26301;42.832;23.918;2023-03-20T08:04:09;93341.75;;;14.64;35.46
40592;BME280;26301;42.832;23.918;2023-03-20T08:06:36;93352.22;;;14.84;34.16
40592;BME280;26301;42.832;23.918;2023-03-20T08:09:04;93363.97;;;15.02;36.62
40592;BME280;26301;42.832;23.918;2023-03-20T08:11:29;93351.25;;;15.11;35.38
40592;BME280;26301;42.832;23.918;2023-03-20T08:13:55;93338.00;;;15.28;36.89
40592;BME280;26301;42.832;23.918;2023-03-20T08:16:21;93363.28;;;15.48;33.09
40592;BME280;26301;42.832;23.918;2023-03-20T08:18:47;93340.38;;;15.50;33.51
40592;BME280;26301;42.832;23.918;2023-03-20T08:21:14;93362.53;;;15.78;32.44
40592;BME280;26301;42.832;23.918;2023-03-20T08:23:40;93341.94;;;15.82;30.71
40592;BME280;26301;42.832;23.918;2023-03-20T08:26:06;93354.69;;;15.98;32.01
40592;BME280;26301;42.832;23.918;2023-03-20T08:28:32;93352.09;;;16.04;31.78
40592;BME280;26301;42.832;23.918;2023-03-20T08:30:57;93355.44;;;16.25;31.08
40592;BME280;26301;42.832;23.918;2023-03-20T08:33:23;93359.84;;;16.29;31.23
40592;BME280;26301;42.832;23.918;2023-03-20T08:36:07;93363.47;;;16.43;32.31
40592;BME280;26301;42.832;23.918;2023-03-20T08:38:33;93362.13;;;16.51;34.56
40592;BME280;26301;42.832;23.918;2023-03-20T08:40:58;93371.00;;;16.55;31.51
40592;BME280;26301;42.832;23.918;2023-03-20T08:43:24;93356.38;;;16.64;32.90
40592;BME280;26301;42.832;23.918;2023-03-20T08:45:51;93350.38;;;16.64;31.49
40592;BME280;26301;42.832;23.918;2023-03-20T08:48:17;93364.69;;;16.82;30.32
40592;BME280;26301;42.832;23.918;2023-03-20T08:50:42;93368.19;;;17.06;30.16
40592;BME280;26301;42.832;23.918;2023-03-20T08:53:09;93343.50;;;16.88;29.50
40592;BME280;26301;42.832;23.918;2023-03-20T08:55:35;93303.63;;;16.73;31.61
40592;BME280;26301;42.832;23.918;2023-03-20T08:58:01;93357.47;;;17.13;32.04
40592;BME280;26301;42.832;23.918;2023-03-20T09:00:26;93344.34;;;17.23;30.05
40592;BME280;26301;42.832;23.918;2023-03-20T09:02:52;93355.78;;;17.32;29.95
40592;BME280;26301;42.832;23.918;2023-03-20T09:05:18;93345.84;;;17.34;29.92
40592;BME280;26301;42.832;23.918;2023-03-20T09:07:43;93346.03;;;17.43;28.98
40592;BME280;26301;42.832;23.918;2023-03-20T09:10:10;93349.38;;;17.54;28.52
40592;BME280;26301;42.832;23.918;2023-03-20T09:12:36;93351.38;;;17.62;30.09
40592;BME280;26301;42.832;23.918;2023-03-20T09:15:03;93356.00;;;17.75;33.16
40592;BME280;26301;42.832;23.918;2023-03-20T09:17:29;93344.97;;;17.83;30.48
40592;BME280;26301;42.832;23.918;2023-03-20T09:19:56;93353.75;;;17.98;31.79
40592;BME280;26301;42.832;23.918;2023-03-20T09:22:23;93342.97;;;18.04;32.86
40592;BME280;26301;42.832;23.918;2023-03-20T09:24:49;93349.25;;;18.03;28.63
40592;BME280;26301;42.832;23.918;2023-03-20T09:27:14;93328.56;;;17.78;28.26
40592;BME280;26301;42.832;23.918;2023-03-20T09:29:41;93315.47;;;17.83;28.71
40592;BME280;26301;42.832;23.918;2023-03-20T09:32:11;93323.63;;;18.05;31.52
40592;BME280;26301;42.832;23.918;2023-03-20T09:34:37;93323.47;;;17.92;29.52
40592;BME280;26301;42.832;23.918;2023-03-20T09:37:03;93322.78;;;18.10;29.97
40592;BME280;26301;42.832;23.918;2023-03-20T09:39:28;93332.31;;;18.25;27.27
40592;BME280;26301;42.832;23.918;2023-03-20T09:41:58;93326.25;;;18.30;29.71
40592;BME280;26301;42.832;23.918;2023-03-20T09:45:17;93329.09;;;18.33;26.72
40592;BME280;26301;42.832;23.918;2023-03-20T09:47:39;93305.66;;;18.23;26.20
40592;BME280;26301;42.832;23.918;2023-03-20T09:53:09;93316.56;;;18.30;26.84
40592;BME280;26301;42.832;23.918;2023-03-20T09:55:38;93298.44;;;18.15;25.48
40592;BME280;26301;42.832;23.918;2023-03-20T09:58:10;93311.59;;;18.28;27.63
40592;BME280;26301;42.832;23.918;2023-03-20T10:00:39;93283.69;;;18.24;27.77
40592;BME280;26301;42.832;23.918;2023-03-20T10:03:16;93286.78;;;18.26;26.61
40592;BME280;26301;42.832;23.918;2023-03-20T10:05:47;93311.34;;;18.54;26.86
40592;BME280;26301;42.832;23.918;2023-03-20T10:08:15;93295.13;;;18.52;27.79
40592;BME280;26301;42.832;23.918;2023-03-20T10:18:50;93258.66;;;18.42;26.18
40592;BME280;26301;42.832;23.918;2023-03-20T10:21:26;93282.88;;;18.71;28.52
40592;BME280;26301;42.832;23.918;2023-03-20T10:24:01;93279.72;;;18.75;26.87
40592;BME280;26301;42.832;23.918;2023-03-20T10:26:30;93244.88;;;18.55;26.47
40592;BME280;26301;42.832;23.918;2023-03-20T10:29:00;93266.38;;;18.71;26.20
40592;BME280;26301;42.832;23.918;2023-03-20T10:31:38;93257.00;;;18.89;23.63
40592;BME280;26301;42.832;23.918;2023-03-20T10:39:48;93260.69;;;18.88;27.71
40592;BME280;26301;42.832;23.918;2023-03-20T10:42:20;93264.44;;;19.01;27.36
40592;BME280;26301;42.832;23.918;2023-03-20T10:47:55;93238.25;;;19.01;22.78
40592;BME280;26301;42.832;23.918;2023-03-20T10:50:52;93229.72;;;18.95;23.43
40592;BME280;26301;42.832;23.918;2023-03-20T10:56:12;93244.50;;;18.86;23.29
40592;BME280;26301;42.832;23.918;2023-03-20T10:58:41;93247.13;;;18.86;23.97
40592;BME280;26301;42.832;23.918;2023-03-20T11:01:09;93224.25;;;18.72;24.94
40592;BME280;26301;42.832;23.918;2023-03-20T11:03:35;93239.19;;;18.72;23.70
40592;BME280;26301;42.832;23.918;2023-03-20T11:06:16;93248.25;;;18.80;25.16
40592;BME280;26301;42.832;23.918;2023-03-20T11:08:47;93238.56;;;18.80;25.21
40592;BME280;26301;42.832;23.918;2023-03-20T11:11:21;93222.00;;;18.66;23.64
40592;BME280;26301;42.832;23.918;2023-03-20T11:13:46;93233.09;;;18.58;22.57
40592;BME280;26301;42.832;23.918;2023-03-20T11:16:28;93220.63;;;18.49;23.24
40592;BME280;26301;42.832;23.918;2023-03-20T11:18:54;93215.63;;;18.72;25.51
40592;BME280;26301;42.832;23.918;2023-03-20T11:21:25;93246.63;;;19.03;23.07
40592;BME280;26301;42.832;23.918;2023-03-20T11:23:51;93221.00;;;18.62;22.28
40592;BME280;26301;42.832;23.918;2023-03-20T11:26:38;93233.19;;;18.90;25.40
40592;BME280;26301;42.832;23.918;2023-03-20T11:29:06;93244.44;;;18.91;21.72
40592;BME280;26301;42.832;23.918;2023-03-20T11:31:37;93221.03;;;18.81;23.32
40592;BME280;26301;42.832;23.918;2023-03-20T11:34:21;93233.56;;;18.84;25.23
40592;BME280;26301;42.832;23.918;2023-03-20T11:36:59;93209.13;;;18.69;25.83
40592;BME280;26301;42.832;23.918;2023-03-20T11:39:29;93225.59;;;18.89;23.36
40592;BME280;26301;42.832;23.918;2023-03-20T11:42:03;93233.25;;;18.85;24.65
40592;BME280;26301;42.832;23.918;2023-03-20T11:44:34;93215.56;;;18.77;22.63
40592;BME280;26301;42.832;23.918;2023-03-20T11:47:05;93219.19;;;18.81;24.89
40592;BME280;26301;42.832;23.918;2023-03-20T11:49:33;93218.25;;;18.91;25.81
40592;BME280;26301;42.832;23.918;2023-03-20T11:52:14;93213.03;;;18.91;22.68
40592;BME280;26301;42.832;23.918;2023-03-20T11:54:47;93196.09;;;18.64;24.37
40592;BME280;26301;42.832;23.918;2023-03-20T11:59:51;93194.56;;;18.63;23.64
40592;BME280;26301;42.832;23.918;2023-03-20T12:02:21;93212.19;;;18.77;25.62
40592;BME280;26301;42.832;23.918;2023-03-20T12:04:47;93198.31;;;18.76;22.83
40592;BME280;26301;42.832;23.918;2023-03-20T12:07:50;93205.53;;;18.84;24.13
40592;BME280;26301;42.832;23.918;2023-03-20T12:10:13;93194.19;;;18.70;25.10
40592;BME280;26301;42.832;23.918;2023-03-20T12:13:21;93202.03;;;18.70;25.05
40592;BME280;26301;42.832;23.918;2023-03-20T12:15:53;93174.25;;;18.55;23.87
40592;BME280;26301;42.832;23.918;2023-03-20T12:18:25;93194.38;;;18.79;25.16
40592;BME280;26301;42.832;23.918;2023-03-20T12:21:20;93196.78;;;18.75;24.89
40592;BME280;26301;42.832;23.918;2023-03-20T12:30:18;93192.28;;;18.94;23.65
40592;BME280;26301;42.832;23.918;2023-03-20T12:33:01;93169.47;;;18.81;23.99
40592;BME280;26301;42.832;23.918;2023-03-20T12:35:30;93187.16;;;18.89;23.81
40592;BME280;26301;42.832;23.918;2023-03-20T12:37:57;93192.41;;;18.89;24.25
40592;BME280;26301;42.832;23.918;2023-03-20T12:40:41;93180.16;;;18.85;24.19
40592;BME280;26301;42.832;23.918;2023-03-20T12:43:20;93170.44;;;18.85;28.04
40592;BME280;26301;42.832;23.918;2023-03-20T12:46:10;93183.41;;;18.95;24.54
40592;BME280;26301;42.832;23.918;2023-03-20T13:02:33;93163.84;;;19.07;22.31
40592;BME280;26301;42.832;23.918;2023-03-20T13:05:19;93156.78;;;18.88;23.68
40592;BME280;26301;42.832;23.918;2023-03-20T13:08:01;93158.66;;;18.88;24.47
40592;BME280;26301;42.832;23.918;2023-03-20T13:10:36;93165.84;;;18.96;25.60
40592;BME280;26301;42.832;23.918;2023-03-20T13:13:15;93160.44;;;19.06;23.66
40592;BME280;26301;42.832;23.918;2023-03-20T13:18:35;93159.03;;;18.95;24.42
40592;BME280;26301;42.832;23.918;2023-03-20T13:21:08;93150.41;;;18.94;25.47
40592;BME280;26301;42.832;23.918;2023-03-20T13:23:44;93152.50;;;19.11;23.64
40592;BME280;26301;42.832;23.918;2023-03-20T13:29:04;93147.97;;;19.17;25.17
40592;BME280;26301;42.832;23.918;2023-03-20T13:31:39;93155.28;;;19.01;24.69
40592;BME280;26301;42.832;23.918;2023-03-20T13:34:18;93152.41;;;19.03;25.07
40592;BME280;26301;42.832;23.918;2023-03-20T13:39:32;93141.53;;;18.95;25.67
40592;BME280;26301;42.832;23.918;2023-03-20T13:42:02;93096.03;;;18.78;25.70
40592;BME280;26301;42.832;23.918;2023-03-20T13:44:30;93110.13;;;18.95;25.58
40592;BME280;26301;42.832;23.918;2023-03-20T13:47:11;93128.53;;;19.04;27.58
40592;BME280;26301;42.832;23.918;2023-03-20T13:49:49;93132.91;;;19.09;27.97
40592;BME280;26301;42.832;23.918;2023-03-20T13:52:23;93110.88;;;18.96;26.55
40592;BME280;26301;42.832;23.918;2023-03-20T13:57:38;93109.53;;;18.99;29.19
40592;BME280;26301;42.832;23.918;2023-03-20T14:03:33;93114.69;;;19.04;28.37
40592;BME280;26301;42.832;23.918;2023-03-20T14:06:25;93109.69;;;18.88;29.62
40592;BME280;26301;42.832;23.918;2023-03-20T14:09:00;93098.53;;;18.83;29.44
40592;BME280;26301;42.832;23.918;2023-03-20T14:11:35;93104.06;;;18.81;29.99
40592;BME280;26301;42.832;23.918;2023-03-20T14:16:37;93084.13;;;18.66;31.93
40592;BME280;26301;42.832;23.918;2023-03-20T14:19:17;93092.16;;;18.70;29.98
40592;BME280;26301;42.832;23.918;2023-03-20T14:21:52;93091.63;;;18.73;28.39
40592;BME280;26301;42.832;23.918;2023-03-20T14:24:18;93098.13;;;18.76;29.46
40592;BME280;26301;42.832;23.918;2023-03-20T14:26:51;93081.88;;;18.60;28.97
40592;BME280;26301;42.832;23.918;2023-03-20T14:32:02;93090.06;;;18.53;29.16
40592;BME280;26301;42.832;23.918;2023-03-20T14:34:43;93088.88;;;18.45;27.97
40592;BME280;26301;42.832;23.918;2023-03-20T14:37:52;93093.72;;;18.38;28.22
40592;BME280;26301;42.832;23.918;2023-03-20T14:40:23;93075.28;;;18.30;28.72
40592;BME280;26301;42.832;23.918;2023-03-20T14:45:34;93081.97;;;18.36;30.07
40592;BME280;26301;42.832;23.918;2023-03-20T14:48:27;93094.38;;;18.44;30.09
40592;BME280;26301;42.832;23.918;2023-03-20T14:53:56;93081.22;;;18.35;30.68
40592;BME280;26301;42.832;23.918;2023-03-20T14:56:32;93088.56;;;18.33;31.33
40592;BME280;26301;42.832;23.918;2023-03-20T14:59:05;93067.75;;;18.23;33.97
40592;BME280;26301;42.832;23.918;2023-03-20T15:04:41;93085.03;;;18.24;30.25
40592;BME280;26301;42.832;23.918;2023-03-20T15:07:29;93061.28;;;18.01;30.23
40592;BME280;26301;42.832;23.918;2023-03-20T15:09:59;93078.09;;;17.95;29.92
40592;BME280;26301;42.832;23.918;2023-03-20T15:12:30;93074.34;;;17.82;29.39